sensor_id;sensor_type;location;lat;lon;timestamp;P1;durP1;ratioP1;P2;durP2;ratioP2
24617;SDS011;12762;51.730;5.356;2024-01-11T00:02:07;29.33;;;12.90;;
24617;SDS011;12762;51.730;5.356;2024-01-11T00:04:33;24.93;;;12.57;;
24617;SDS011;12762;51.730;5.356;2024-01-11T00:07:03;27.67;;;12.47;;
24617;SDS011;12762;51.730;5.356;2024-01-11T00:09:30;25.23;;;12.23;;
24617;SDS011;12762;51.730;5.356;2024-01-11T00:12:00;30.03;;;13.50;;
24617;SDS011;12762;51.730;5.356;2024-01-11T00:14:26;26.27;;;12.80;;
24617;SDS011;12762;51.730;5.356;2024-01-11T00:16:53;28.20;;;13.47;;
24617;SDS011;12762;51.730;5.356;2024-01-11T00:19:20;27.53;;;13.53;;
24617;SDS011;12762;51.730;5.356;2024-01-11T00:21:47;27.13;;;13.20;;
24617;SDS011;12762;51.730;5.356;2024-01-11T00:24:14;30.97;;;12.43;;
24617;SDS011;12762;51.730;5.356;2024-01-11T00:26:42;25.37;;;12.70;;
24617;SDS011;12762;51.730;5.356;2024-01-11T00:29:08;33.47;;;14.63;;
24617;SDS011;12762;51.730;5.356;2024-01-11T00:31:35;29.33;;;13.73;;
24617;SDS011;12762;51.730;5.356;2024-01-11T00:34:03;27.20;;;13.70;;
24617;SDS011;12762;51.730;5.356;2024-01-11T00:36:30;35.53;;;14.30;;
24617;SDS011;12762;51.730;5.356;2024-01-11T00:38:59;27.53;;;12.77;;
24617;SDS011;12762;51.730;5.356;2024-01-11T00:41:26;26.73;;;13.70;;
24617;SDS011;12762;51.730;5.356;2024-01-11T00:43:52;29.33;;;13.27;;
24617;SDS011;12762;51.730;5.356;2024-01-11T00:46:19;27.33;;;13.80;;
24617;SDS011;12762;51.730;5.356;2024-01-11T00:48:46;29.53;;;13.77;;
24617;SDS011;12762;51.730;5.356;2024-01-11T00:51:13;27.97;;;13.07;;
24617;SDS011;12762;51.730;5.356;2024-01-11T00:53:41;32.20;;;13.73;;
24617;SDS011;12762;51.730;5.356;2024-01-11T00:56:19;27.97;;;13.57;;
24617;SDS011;12762;51.730;5.356;2024-01-11T00:58:52;32.07;;;14.40;;
24617;SDS011;12762;51.730;5.356;2024-01-11T01:01:19;30.37;;;13.20;;
24617;SDS011;12762;51.730;5.356;2024-01-11T01:03:46;30.00;;;13.87;;
24617;SDS011;12762;51.730;5.356;2024-01-11T01:06:13;29.33;;;13.27;;
24617;SDS011;12762;51.730;5.356;2024-01-11T01:08:40;31.60;;;13.00;;
24617;SDS011;12762;51.730;5.356;2024-01-11T01:11:07;24.33;;;12.00;;
24617;SDS011;12762;51.730;5.356;2024-01-11T01:13:34;30.77;;;13.70;;
24617;SDS011;12762;51.730;5.356;2024-01-11T01:16:00;27.83;;;13.33;;
24617;SDS011;12762;51.730;5.356;2024-01-11T01:18:27;33.93;;;14.40;;
24617;SDS011;12762;51.730;5.356;2024-01-11T01:20:54;27.60;;;12.77;;
24617;SDS011;12762;51.730;5.356;2024-01-11T01:23:22;27.87;;;13.23;;
24617;SDS011;12762;51.730;5.356;2024-01-11T01:25:51;28.37;;;13.00;;
24617;SDS011;12762;51.730;5.356;2024-01-11T01:28:18;31.00;;;12.63;;
24617;SDS011;12762;51.730;5.356;2024-01-11T01:30:45;27.10;;;12.87;;
24617;SDS011;12762;51.730;5.356;2024-01-11T01:33:12;28.23;;;13.17;;
24617;SDS011;12762;51.730;5.356;2024-01-11T01:35:42;28.23;;;13.23;;
24617;SDS011;12762;51.730;5.356;2024-01-11T01:38:09;25.27;;;12.83;;
24617;SDS011;12762;51.730;5.356;2024-01-11T01:40:36;26.60;;;12.73;;
24617;SDS011;12762;51.730;5.356;2024-01-11T01:43:06;28.30;;;12.83;;
24617;SDS011;12762;51.730;5.356;2024-01-11T01:45:34;29.43;;;13.07;;
24617;SDS011;12762;51.730;5.356;2024-01-11T01:48:01;28.83;;;13.23;;
24617;SDS011;12762;51.730;5.356;2024-01-11T01:50:29;25.80;;;12.63;;
24617;SDS011;12762;51.730;5.356;2024-01-11T01:52:56;33.47;;;13.77;;
24617;SDS011;12762;51.730;5.356;2024-01-11T01:55:24;29.50;;;13.90;;
24617;SDS011;12762;51.730;5.356;2024-01-11T01:57:52;28.90;;;13.37;;
24617;SDS011;12762;51.730;5.356;2024-01-11T02:00:20;28.77;;;12.90;;
24617;SDS011;12762;51.730;5.356;2024-01-11T02:02:49;30.20;;;13.27;;
24617;SDS011;12762;51.730;5.356;2024-01-11T02:05:18;27.83;;;12.97;;
24617;SDS011;12762;51.730;5.356;2024-01-11T02:07:45;26.03;;;12.87;;
24617;SDS011;12762;51.730;5.356;2024-01-11T02:10:12;28.47;;;12.73;;
24617;SDS011;12762;51.730;5.356;2024-01-11T02:12:41;31.63;;;14.03;;
24617;SDS011;12762;51.730;5.356;2024-01-11T02:15:08;31.53;;;13.70;;
24617;SDS011;12762;51.730;5.356;2024-01-11T02:17:35;28.27;;;13.40;;
24617;SDS011;12762;51.730;5.356;2024-01-11T02:20:02;31.97;;;14.93;;
24617;SDS011;12762;51.730;5.356;2024-01-11T02:22:40;29.47;;;13.07;;
24617;SDS011;12762;51.730;5.356;2024-01-11T02:25:11;29.13;;;13.97;;
24617;SDS011;12762;51.730;5.356;2024-01-11T02:27:45;33.83;;;14.33;;
24617;SDS011;12762;51.730;5.356;2024-01-11T02:30:16;30.60;;;13.70;;
24617;SDS011;12762;51.730;5.356;2024-01-11T02:32:44;30.53;;;14.27;;
24617;SDS011;12762;51.730;5.356;2024-01-11T02:35:14;27.57;;;13.30;;
24617;SDS011;12762;51.730;5.356;2024-01-11T02:37:41;30.07;;;12.93;;
24617;SDS011;12762;51.730;5.356;2024-01-11T02:40:09;29.90;;;14.27;;
24617;SDS011;12762;51.730;5.356;2024-01-11T02:42:41;29.40;;;14.03;;
24617;SDS011;12762;51.730;5.356;2024-01-11T02:45:08;34.20;;;14.40;;
24617;SDS011;12762;51.730;5.356;2024-01-11T02:47:37;30.17;;;14.00;;
24617;SDS011;12762;51.730;5.356;2024-01-11T02:50:05;29.77;;;13.27;;
24617;SDS011;12762;51.730;5.356;2024-01-11T02:52:34;28.70;;;13.13;;
24617;SDS011;12762;51.730;5.356;2024-01-11T02:55:01;28.57;;;13.63;;
24617;SDS011;12762;51.730;5.356;2024-01-11T02:57:28;28.83;;;13.20;;
24617;SDS011;12762;51.730;5.356;2024-01-11T02:59:55;25.67;;;12.50;;
24617;SDS011;12762;51.730;5.356;2024-01-11T03:02:22;29.47;;;12.57;;
24617;SDS011;12762;51.730;5.356;2024-01-11T03:04:49;30.03;;;14.07;;
24617;SDS011;12762;51.730;5.356;2024-01-11T03:07:15;31.40;;;13.23;;
24617;SDS011;12762;51.730;5.356;2024-01-11T03:09:42;29.83;;;12.40;;
24617;SDS011;12762;51.730;5.356;2024-01-11T03:12:09;33.00;;;13.97;;
24617;SDS011;12762;51.730;5.356;2024-01-11T03:14:36;27.90;;;12.60;;
24617;SDS011;12762;51.730;5.356;2024-01-11T03:17:03;28.23;;;12.67;;
24617;SDS011;12762;51.730;5.356;2024-01-11T03:19:31;33.13;;;13.27;;
24617;SDS011;12762;51.730;5.356;2024-01-11T03:21:58;24.60;;;11.60;;
24617;SDS011;12762;51.730;5.356;2024-01-11T03:24:27;26.77;;;13.50;;
24617;SDS011;12762;51.730;5.356;2024-01-11T03:26:54;25.63;;;12.07;;
24617;SDS011;12762;51.730;5.356;2024-01-11T03:29:20;28.90;;;12.93;;
24617;SDS011;12762;51.730;5.356;2024-01-11T03:31:47;25.70;;;12.53;;
24617;SDS011;12762;51.730;5.356;2024-01-11T03:34:14;31.47;;;13.50;;
24617;SDS011;12762;51.730;5.356;2024-01-11T03:36:41;25.37;;;12.17;;
24617;SDS011;12762;51.730;5.356;2024-01-11T03:39:08;28.17;;;11.97;;
24617;SDS011;12762;51.730;5.356;2024-01-11T03:41:34;30.50;;;12.77;;
24617;SDS011;12762;51.730;5.356;2024-01-11T03:44:01;27.53;;;12.83;;
24617;SDS011;12762;51.730;5.356;2024-01-11T03:46:28;29.27;;;12.37;;
24617;SDS011;12762;51.730;5.356;2024-01-11T03:48:55;30.53;;;13.17;;
24617;SDS011;12762;51.730;5.356;2024-01-11T03:51:23;24.50;;;12.00;;
24617;SDS011;12762;51.730;5.356;2024-01-11T03:53:52;26.97;;;12.80;;
24617;SDS011;12762;51.730;5.356;2024-01-11T03:56:19;28.43;;;12.80;;
24617;SDS011;12762;51.730;5.356;2024-01-11T03:58:46;24.60;;;12.43;;
24617;SDS011;12762;51.730;5.356;2024-01-11T04:01:13;26.40;;;12.57;;
24617;SDS011;12762;51.730;5.356;2024-01-11T04:03:41;28.20;;;11.97;;
24617;SDS011;12762;51.730;5.356;2024-01-11T04:06:08;27.00;;;12.67;;
24617;SDS011;12762;51.730;5.356;2024-01-11T04:08:35;29.43;;;12.37;;
24617;SDS011;12762;51.730;5.356;2024-01-11T04:11:02;27.27;;;12.33;;
24617;SDS011;12762;51.730;5.356;2024-01-11T04:13:30;27.00;;;12.20;;
24617;SDS011;12762;51.730;5.356;2024-01-11T04:15:57;26.00;;;12.53;;
24617;SDS011;12762;51.730;5.356;2024-01-11T04:18:24;25.77;;;12.00;;
24617;SDS011;12762;51.730;5.356;2024-01-11T04:20:51;28.57;;;12.70;;
24617;SDS011;12762;51.730;5.356;2024-01-11T04:23:20;25.83;;;12.30;;
24617;SDS011;12762;51.730;5.356;2024-01-11T04:25:47;24.63;;;11.80;;
24617;SDS011;12762;51.730;5.356;2024-01-11T04:28:14;26.50;;;12.63;;
24617;SDS011;12762;51.730;5.356;2024-01-11T04:30:40;27.70;;;12.97;;
24617;SDS011;12762;51.730;5.356;2024-01-11T04:33:07;23.97;;;11.90;;
24617;SDS011;12762;51.730;5.356;2024-01-11T04:35:34;27.00;;;11.63;;
24617;SDS011;12762;51.730;5.356;2024-01-11T04:38:01;30.60;;;13.23;;
24617;SDS011;12762;51.730;5.356;2024-01-11T04:40:28;29.23;;;13.23;;
24617;SDS011;12762;51.730;5.356;2024-01-11T04:42:55;25.53;;;11.87;;
24617;SDS011;12762;51.730;5.356;2024-01-11T04:45:22;23.47;;;11.83;;
24617;SDS011;12762;51.730;5.356;2024-01-11T04:47:50;29.30;;;12.53;;
24617;SDS011;12762;51.730;5.356;2024-01-11T04:50:17;26.27;;;12.13;;
24617;SDS011;12762;51.730;5.356;2024-01-11T04:52:47;25.83;;;12.10;;
24617;SDS011;12762;51.730;5.356;2024-01-11T04:55:14;22.33;;;11.50;;
24617;SDS011;12762;51.730;5.356;2024-01-11T04:57:41;27.77;;;11.90;;
24617;SDS011;12762;51.730;5.356;2024-01-11T05:00:08;26.43;;;12.83;;
24617;SDS011;12762;51.730;5.356;2024-01-11T05:02:35;26.93;;;12.53;;
24617;SDS011;12762;51.730;5.356;2024-01-11T05:05:02;23.13;;;11.50;;
24617;SDS011;12762;51.730;5.356;2024-01-11T05:07:29;30.43;;;13.30;;
24617;SDS011;12762;51.730;5.356;2024-01-11T05:09:57;27.50;;;11.70;;
24617;SDS011;12762;51.730;5.356;2024-01-11T05:12:25;26.93;;;12.33;;
24617;SDS011;12762;51.730;5.356;2024-01-11T05:14:51;23.97;;;11.50;;
24617;SDS011;12762;51.730;5.356;2024-01-11T05:17:18;24.57;;;11.43;;
24617;SDS011;12762;51.730;5.356;2024-01-11T05:19:45;25.07;;;11.77;;
24617;SDS011;12762;51.730;5.356;2024-01-11T05:22:12;26.47;;;11.20;;
24617;SDS011;12762;51.730;5.356;2024-01-11T05:24:38;31.97;;;12.00;;
24617;SDS011;12762;51.730;5.356;2024-01-11T05:27:05;24.60;;;11.07;;
24617;SDS011;12762;51.730;5.356;2024-01-11T05:29:32;26.53;;;11.47;;
24617;SDS011;12762;51.730;5.356;2024-01-11T05:31:59;24.73;;;11.37;;
24617;SDS011;12762;51.730;5.356;2024-01-11T05:34:26;29.23;;;11.70;;
24617;SDS011;12762;51.730;5.356;2024-01-11T05:36:53;26.53;;;11.83;;
24617;SDS011;12762;51.730;5.356;2024-01-11T05:39:21;25.97;;;12.10;;
24617;SDS011;12762;51.730;5.356;2024-01-11T05:41:49;25.57;;;11.60;;
24617;SDS011;12762;51.730;5.356;2024-01-11T05:44:16;26.17;;;12.07;;
24617;SDS011;12762;51.730;5.356;2024-01-11T05:46:43;30.23;;;12.43;;
24617;SDS011;12762;51.730;5.356;2024-01-11T05:49:10;26.83;;;12.07;;
24617;SDS011;12762;51.730;5.356;2024-01-11T05:51:37;25.80;;;12.63;;
24617;SDS011;12762;51.730;5.356;2024-01-11T05:54:03;24.57;;;11.40;;
24617;SDS011;12762;51.730;5.356;2024-01-11T05:56:30;27.60;;;13.77;;
24617;SDS011;12762;51.730;5.356;2024-01-11T05:58:57;28.10;;;13.00;;
24617;SDS011;12762;51.730;5.356;2024-01-11T06:01:25;25.70;;;11.80;;
24617;SDS011;12762;51.730;5.356;2024-01-11T06:03:52;28.57;;;12.87;;
24617;SDS011;12762;51.730;5.356;2024-01-11T06:06:19;29.50;;;12.40;;
24617;SDS011;12762;51.730;5.356;2024-01-11T06:08:45;25.03;;;11.70;;
24617;SDS011;12762;51.730;5.356;2024-01-11T06:11:12;29.27;;;12.90;;
24617;SDS011;12762;51.730;5.356;2024-01-11T06:13:42;25.17;;;12.30;;
24617;SDS011;12762;51.730;5.356;2024-01-11T06:16:09;26.27;;;12.43;;
24617;SDS011;12762;51.730;5.356;2024-01-11T06:18:38;26.97;;;12.50;;
24617;SDS011;12762;51.730;5.356;2024-01-11T06:21:05;26.00;;;12.20;;
24617;SDS011;12762;51.730;5.356;2024-01-11T06:23:35;29.80;;;12.43;;
24617;SDS011;12762;51.730;5.356;2024-01-11T06:26:02;25.63;;;11.87;;
24617;SDS011;12762;51.730;5.356;2024-01-11T06:28:29;26.30;;;11.90;;
24617;SDS011;12762;51.730;5.356;2024-01-11T06:30:59;27.17;;;12.83;;
24617;SDS011;12762;51.730;5.356;2024-01-11T06:33:26;27.90;;;13.23;;
24617;SDS011;12762;51.730;5.356;2024-01-11T06:35:54;27.80;;;12.33;;
24617;SDS011;12762;51.730;5.356;2024-01-11T06:38:22;26.90;;;12.93;;
24617;SDS011;12762;51.730;5.356;2024-01-11T06:40:49;27.17;;;12.50;;
24617;SDS011;12762;51.730;5.356;2024-01-11T06:43:18;25.67;;;12.70;;
24617;SDS011;12762;51.730;5.356;2024-01-11T06:45:45;22.10;;;11.67;;
24617;SDS011;12762;51.730;5.356;2024-01-11T06:48:12;24.00;;;12.50;;
24617;SDS011;12762;51.730;5.356;2024-01-11T06:50:39;24.53;;;11.77;;
24617;SDS011;12762;51.730;5.356;2024-01-11T06:53:06;27.87;;;13.17;;
24617;SDS011;12762;51.730;5.356;2024-01-11T06:55:33;35.77;;;13.40;;
24617;SDS011;12762;51.730;5.356;2024-01-11T06:58:02;25.83;;;12.57;;
24617;SDS011;12762;51.730;5.356;2024-01-11T07:00:29;27.63;;;12.83;;
24617;SDS011;12762;51.730;5.356;2024-01-11T07:02:56;31.50;;;14.17;;
24617;SDS011;12762;51.730;5.356;2024-01-11T07:05:23;28.30;;;12.30;;
24617;SDS011;12762;51.730;5.356;2024-01-11T07:07:50;26.97;;;13.33;;
24617;SDS011;12762;51.730;5.356;2024-01-11T07:10:17;29.57;;;13.03;;
24617;SDS011;12762;51.730;5.356;2024-01-11T07:12:44;27.03;;;12.83;;
24617;SDS011;12762;51.730;5.356;2024-01-11T07:15:14;31.60;;;13.40;;
24617;SDS011;12762;51.730;5.356;2024-01-11T07:17:41;30.07;;;13.70;;
24617;SDS011;12762;51.730;5.356;2024-01-11T07:20:08;31.17;;;13.73;;
24617;SDS011;12762;51.730;5.356;2024-01-11T07:22:36;27.57;;;13.23;;
24617;SDS011;12762;51.730;5.356;2024-01-11T07:25:07;27.73;;;13.90;;
24617;SDS011;12762;51.730;5.356;2024-01-11T07:27:34;31.50;;;14.30;;
24617;SDS011;12762;51.730;5.356;2024-01-11T07:30:02;29.97;;;14.20;;
24617;SDS011;12762;51.730;5.356;2024-01-11T07:32:29;29.63;;;13.40;;
24617;SDS011;12762;51.730;5.356;2024-01-11T07:34:56;30.07;;;13.73;;
24617;SDS011;12762;51.730;5.356;2024-01-11T07:37:23;30.50;;;14.77;;
24617;SDS011;12762;51.730;5.356;2024-01-11T07:39:52;27.93;;;14.30;;
24617;SDS011;12762;51.730;5.356;2024-01-11T07:42:18;29.10;;;14.13;;
24617;SDS011;12762;51.730;5.356;2024-01-11T07:44:49;35.07;;;15.10;;
24617;SDS011;12762;51.730;5.356;2024-01-11T07:47:15;29.53;;;14.83;;
24617;SDS011;12762;51.730;5.356;2024-01-11T07:49:44;33.77;;;14.90;;
24617;SDS011;12762;51.730;5.356;2024-01-11T07:52:10;29.37;;;14.07;;
24617;SDS011;12762;51.730;5.356;2024-01-11T07:54:37;32.07;;;14.73;;
24617;SDS011;12762;51.730;5.356;2024-01-11T07:57:04;32.03;;;15.00;;
24617;SDS011;12762;51.730;5.356;2024-01-11T07:59:34;29.73;;;15.43;;
24617;SDS011;12762;51.730;5.356;2024-01-11T08:02:04;30.00;;;14.67;;
24617;SDS011;12762;51.730;5.356;2024-01-11T08:04:32;32.03;;;14.00;;
24617;SDS011;12762;51.730;5.356;2024-01-11T08:06:59;35.50;;;14.53;;
24617;SDS011;12762;51.730;5.356;2024-01-11T08:09:26;36.97;;;15.27;;
24617;SDS011;12762;51.730;5.356;2024-01-11T08:11:55;27.40;;;13.87;;
24617;SDS011;12762;51.730;5.356;2024-01-11T08:14:23;27.70;;;13.87;;
24617;SDS011;12762;51.730;5.356;2024-01-11T08:16:50;28.70;;;13.40;;
24617;SDS011;12762;51.730;5.356;2024-01-11T08:19:17;29.13;;;14.93;;
24617;SDS011;12762;51.730;5.356;2024-01-11T08:21:47;36.37;;;16.13;;
24617;SDS011;12762;51.730;5.356;2024-01-11T08:24:14;29.77;;;14.67;;
24617;SDS011;12762;51.730;5.356;2024-01-11T08:26:40;31.63;;;15.83;;
24617;SDS011;12762;51.730;5.356;2024-01-11T08:29:08;38.63;;;17.27;;
24617;SDS011;12762;51.730;5.356;2024-01-11T08:31:35;32.07;;;15.07;;
24617;SDS011;12762;51.730;5.356;2024-01-11T08:34:05;39.80;;;16.87;;
24617;SDS011;12762;51.730;5.356;2024-01-11T08:36:32;36.13;;;17.13;;
24617;SDS011;12762;51.730;5.356;2024-01-11T08:39:07;36.40;;;16.77;;
24617;SDS011;12762;51.730;5.356;2024-01-11T08:41:34;43.17;;;17.27;;
24617;SDS011;12762;51.730;5.356;2024-01-11T08:44:01;36.93;;;17.43;;
24617;SDS011;12762;51.730;5.356;2024-01-11T08:46:29;39.30;;;16.70;;
24617;SDS011;12762;51.730;5.356;2024-01-11T08:48:57;41.63;;;16.97;;
24617;SDS011;12762;51.730;5.356;2024-01-11T08:51:24;35.93;;;16.83;;
24617;SDS011;12762;51.730;5.356;2024-01-11T08:53:51;44.40;;;18.77;;
24617;SDS011;12762;51.730;5.356;2024-01-11T08:56:19;40.40;;;17.87;;
24617;SDS011;12762;51.730;5.356;2024-01-11T08:58:46;38.30;;;17.97;;
24617;SDS011;12762;51.730;5.356;2024-01-11T09:01:14;40.57;;;17.97;;
24617;SDS011;12762;51.730;5.356;2024-01-11T09:03:41;37.63;;;18.00;;
24617;SDS011;12762;51.730;5.356;2024-01-11T09:06:08;39.23;;;18.57;;
24617;SDS011;12762;51.730;5.356;2024-01-11T09:08:36;43.33;;;19.03;;
24617;SDS011;12762;51.730;5.356;2024-01-11T09:11:03;36.93;;;13.97;;
24617;SDS011;12762;51.730;5.356;2024-01-11T09:13:30;34.43;;;15.07;;
24617;SDS011;12762;51.730;5.356;2024-01-11T09:15:57;34.23;;;14.47;;
24617;SDS011;12762;51.730;5.356;2024-01-11T09:18:24;35.27;;;14.40;;
24617;SDS011;12762;51.730;5.356;2024-01-11T09:20:51;29.30;;;13.93;;
24617;SDS011;12762;51.730;5.356;2024-01-11T09:23:18;34.27;;;14.67;;
24617;SDS011;12762;51.730;5.356;2024-01-11T09:25:45;30.23;;;14.30;;
24617;SDS011;12762;51.730;5.356;2024-01-11T09:28:12;33.47;;;15.90;;
24617;SDS011;12762;51.730;5.356;2024-01-11T09:30:41;31.93;;;13.97;;
24617;SDS011;12762;51.730;5.356;2024-01-11T09:33:09;35.60;;;15.27;;
24617;SDS011;12762;51.730;5.356;2024-01-11T09:35:36;36.03;;;16.23;;
24617;SDS011;12762;51.730;5.356;2024-01-11T09:38:02;32.67;;;15.00;;
24617;SDS011;12762;51.730;5.356;2024-01-11T09:40:33;36.47;;;15.80;;
24617;SDS011;12762;51.730;5.356;2024-01-11T09:43:01;38.40;;;16.43;;
24617;SDS011;12762;51.730;5.356;2024-01-11T09:45:30;31.43;;;15.43;;
24617;SDS011;12762;51.730;5.356;2024-01-11T09:47:57;36.80;;;16.47;;
24617;SDS011;12762;51.730;5.356;2024-01-11T09:50:25;33.40;;;15.17;;
24617;SDS011;12762;51.730;5.356;2024-01-11T09:52:52;36.33;;;15.23;;
24617;SDS011;12762;51.730;5.356;2024-01-11T09:55:19;33.93;;;16.07;;
24617;SDS011;12762;51.730;5.356;2024-01-11T09:57:49;34.33;;;15.97;;
24617;SDS011;12762;51.730;5.356;2024-01-11T10:00:22;37.13;;;16.70;;
24617;SDS011;12762;51.730;5.356;2024-01-11T10:02:50;37.37;;;16.07;;
24617;SDS011;12762;51.730;5.356;2024-01-11T10:05:18;34.37;;;16.20;;
24617;SDS011;12762;51.730;5.356;2024-01-11T10:07:45;36.53;;;15.10;;
24617;SDS011;12762;51.730;5.356;2024-01-11T10:10:12;36.87;;;16.67;;
24617;SDS011;12762;51.730;5.356;2024-01-11T10:12:41;37.87;;;17.60;;
24617;SDS011;12762;51.730;5.356;2024-01-11T10:15:09;39.10;;;17.63;;
24617;SDS011;12762;51.730;5.356;2024-01-11T10:17:40;40.90;;;18.27;;
24617;SDS011;12762;51.730;5.356;2024-01-11T10:20:10;36.73;;;17.20;;
24617;SDS011;12762;51.730;5.356;2024-01-11T10:22:41;40.53;;;17.30;;
24617;SDS011;12762;51.730;5.356;2024-01-11T10:25:09;35.47;;;16.97;;
24617;SDS011;12762;51.730;5.356;2024-01-11T10:27:39;37.57;;;17.47;;
24617;SDS011;12762;51.730;5.356;2024-01-11T10:30:11;39.43;;;16.37;;
24617;SDS011;12762;51.730;5.356;2024-01-11T10:32:52;37.73;;;16.73;;
24617;SDS011;12762;51.730;5.356;2024-01-11T10:35:19;36.67;;;16.70;;
24617;SDS011;12762;51.730;5.356;2024-01-11T10:37:48;35.57;;;16.87;;
24617;SDS011;12762;51.730;5.356;2024-01-11T10:40:19;46.77;;;18.57;;
24617;SDS011;12762;51.730;5.356;2024-01-11T10:42:50;41.03;;;17.23;;
24617;SDS011;12762;51.730;5.356;2024-01-11T10:45:19;32.43;;;17.80;;
24617;SDS011;12762;51.730;5.356;2024-01-11T10:47:50;35.93;;;16.30;;
24617;SDS011;12762;51.730;5.356;2024-01-11T10:50:20;36.97;;;17.20;;
24617;SDS011;12762;51.730;5.356;2024-01-11T10:53:02;36.63;;;18.03;;
24617;SDS011;12762;51.730;5.356;2024-01-11T10:55:41;37.03;;;16.20;;
24617;SDS011;12762;51.730;5.356;2024-01-11T10:58:08;36.40;;;16.97;;
24617;SDS011;12762;51.730;5.356;2024-01-11T11:00:37;37.97;;;16.80;;
24617;SDS011;12762;51.730;5.356;2024-01-11T11:03:04;33.17;;;16.17;;
24617;SDS011;12762;51.730;5.356;2024-01-11T11:05:34;33.07;;;15.90;;
24617;SDS011;12762;51.730;5.356;2024-01-11T11:08:03;36.03;;;16.83;;
24617;SDS011;12762;51.730;5.356;2024-01-11T11:10:32;37.53;;;17.30;;
24617;SDS011;12762;51.730;5.356;2024-01-11T11:13:00;36.80;;;17.17;;
24617;SDS011;12762;51.730;5.356;2024-01-11T11:15:27;38.67;;;18.13;;
24617;SDS011;12762;51.730;5.356;2024-01-11T11:17:55;37.20;;;17.67;;
24617;SDS011;12762;51.730;5.356;2024-01-11T11:20:22;36.83;;;17.77;;
24617;SDS011;12762;51.730;5.356;2024-01-11T11:23:02;39.80;;;18.57;;
24617;SDS011;12762;51.730;5.356;2024-01-11T11:25:33;40.10;;;19.17;;
24617;SDS011;12762;51.730;5.356;2024-01-11T11:28:00;37.13;;;17.67;;
24617;SDS011;12762;51.730;5.356;2024-01-11T11:30:30;32.07;;;15.83;;
24617;SDS011;12762;51.730;5.356;2024-01-11T11:33:08;35.40;;;17.17;;
24617;SDS011;12762;51.730;5.356;2024-01-11T11:35:43;30.30;;;14.27;;
24617;SDS011;12762;51.730;5.356;2024-01-11T11:38:28;32.03;;;16.43;;
24617;SDS011;12762;51.730;5.356;2024-01-11T11:40:57;31.73;;;16.03;;
24617;SDS011;12762;51.730;5.356;2024-01-11T11:43:28;36.93;;;18.33;;
24617;SDS011;12762;51.730;5.356;2024-01-11T11:45:56;32.17;;;16.63;;
24617;SDS011;12762;51.730;5.356;2024-01-11T11:53:36;35.67;;;17.27;;
24617;SDS011;12762;51.730;5.356;2024-01-11T11:56:04;33.50;;;16.77;;
24617;SDS011;12762;51.730;5.356;2024-01-11T11:58:32;32.57;;;15.17;;
24617;SDS011;12762;51.730;5.356;2024-01-11T12:01:00;28.07;;;15.30;;
24617;SDS011;12762;51.730;5.356;2024-01-11T12:03:29;26.20;;;13.47;;
24617;SDS011;12762;51.730;5.356;2024-01-11T12:06:06;27.77;;;12.17;;
24617;SDS011;12762;51.730;5.356;2024-01-11T12:08:35;21.97;;;10.07;;
24617;SDS011;12762;51.730;5.356;2024-01-11T12:11:03;22.23;;;10.20;;
24617;SDS011;12762;51.730;5.356;2024-01-11T12:13:30;27.33;;;10.30;;
24617;SDS011;12762;51.730;5.356;2024-01-11T12:15:58;26.30;;;11.40;;
24617;SDS011;12762;51.730;5.356;2024-01-11T12:18:25;23.40;;;10.60;;
24617;SDS011;12762;51.730;5.356;2024-01-11T12:20:53;24.70;;;11.30;;
24617;SDS011;12762;51.730;5.356;2024-01-11T12:23:23;20.97;;;10.23;;
24617;SDS011;12762;51.730;5.356;2024-01-11T12:25:49;22.10;;;10.57;;
24617;SDS011;12762;51.730;5.356;2024-01-11T12:28:16;23.37;;;9.93;;
24617;SDS011;12762;51.730;5.356;2024-01-11T12:30:44;22.73;;;9.97;;
24617;SDS011;12762;51.730;5.356;2024-01-11T12:33:14;23.30;;;9.87;;
24617;SDS011;12762;51.730;5.356;2024-01-11T12:35:42;23.77;;;10.73;;
24617;SDS011;12762;51.730;5.356;2024-01-11T12:38:09;26.23;;;10.47;;
24617;SDS011;12762;51.730;5.356;2024-01-11T12:40:36;27.87;;;11.00;;
24617;SDS011;12762;51.730;5.356;2024-01-11T12:43:04;23.37;;;10.10;;
24617;SDS011;12762;51.730;5.356;2024-01-11T12:45:32;24.30;;;9.77;;
24617;SDS011;12762;51.730;5.356;2024-01-11T12:47:59;22.50;;;9.50;;
24617;SDS011;12762;51.730;5.356;2024-01-11T12:50:27;23.93;;;9.00;;
24617;SDS011;12762;51.730;5.356;2024-01-11T12:58:42;25.40;;;10.10;;
24617;SDS011;12762;51.730;5.356;2024-01-11T13:01:09;26.97;;;10.30;;
24617;SDS011;12762;51.730;5.356;2024-01-11T13:03:37;23.57;;;9.40;;
24617;SDS011;12762;51.730;5.356;2024-01-11T13:06:05;26.63;;;10.50;;
24617;SDS011;12762;51.730;5.356;2024-01-11T13:08:38;23.57;;;9.43;;
24617;SDS011;12762;51.730;5.356;2024-01-11T13:11:08;23.20;;;9.80;;
24617;SDS011;12762;51.730;5.356;2024-01-11T13:13:40;25.90;;;10.13;;
24617;SDS011;12762;51.730;5.356;2024-01-11T13:16:07;24.73;;;10.00;;
24617;SDS011;12762;51.730;5.356;2024-01-11T13:18:40;24.23;;;10.30;;
24617;SDS011;12762;51.730;5.356;2024-01-11T13:21:07;25.27;;;10.27;;
24617;SDS011;12762;51.730;5.356;2024-01-11T13:23:34;30.87;;;11.40;;
24617;SDS011;12762;51.730;5.356;2024-01-11T13:26:01;29.77;;;10.63;;
24617;SDS011;12762;51.730;5.356;2024-01-11T13:28:29;28.80;;;10.47;;
24617;SDS011;12762;51.730;5.356;2024-01-11T13:30:58;24.70;;;10.77;;
24617;SDS011;12762;51.730;5.356;2024-01-11T13:33:26;24.53;;;10.87;;
24617;SDS011;12762;51.730;5.356;2024-01-11T13:35:52;25.70;;;10.90;;
24617;SDS011;12762;51.730;5.356;2024-01-11T13:38:23;27.07;;;10.00;;
24617;SDS011;12762;51.730;5.356;2024-01-11T13:40:51;25.70;;;10.93;;
24617;SDS011;12762;51.730;5.356;2024-01-11T13:43:17;28.13;;;11.13;;
24617;SDS011;12762;51.730;5.356;2024-01-11T13:45:45;26.67;;;11.13;;
24617;SDS011;12762;51.730;5.356;2024-01-11T13:48:13;28.37;;;10.97;;
24617;SDS011;12762;51.730;5.356;2024-01-11T13:50:40;26.03;;;11.40;;
24617;SDS011;12762;51.730;5.356;2024-01-11T13:53:07;26.80;;;11.27;;
24617;SDS011;12762;51.730;5.356;2024-01-11T13:55:34;22.93;;;9.97;;
24617;SDS011;12762;51.730;5.356;2024-01-11T13:58:05;25.90;;;10.80;;
24617;SDS011;12762;51.730;5.356;2024-01-11T14:00:32;27.83;;;10.97;;
24617;SDS011;12762;51.730;5.356;2024-01-11T14:03:05;25.47;;;10.53;;
24617;SDS011;12762;51.730;5.356;2024-01-11T14:05:32;24.80;;;10.57;;
24617;SDS011;12762;51.730;5.356;2024-01-11T14:08:02;30.43;;;11.17;;
24617;SDS011;12762;51.730;5.356;2024-01-11T14:10:35;29.10;;;11.63;;
24617;SDS011;12762;51.730;5.356;2024-01-11T14:13:02;25.80;;;11.37;;
24617;SDS011;12762;51.730;5.356;2024-01-11T14:15:29;29.90;;;12.17;;
24617;SDS011;12762;51.730;5.356;2024-01-11T14:17:59;30.10;;;11.37;;
24617;SDS011;12762;51.730;5.356;2024-01-11T14:20:26;24.77;;;9.97;;
24617;SDS011;12762;51.730;5.356;2024-01-11T14:22:56;27.07;;;10.80;;
24617;SDS011;12762;51.730;5.356;2024-01-11T14:25:23;28.03;;;10.43;;
24617;SDS011;12762;51.730;5.356;2024-01-11T14:27:55;26.83;;;10.77;;
24617;SDS011;12762;51.730;5.356;2024-01-11T14:30:22;29.40;;;10.53;;
24617;SDS011;12762;51.730;5.356;2024-01-11T14:32:49;28.83;;;10.63;;
24617;SDS011;12762;51.730;5.356;2024-01-11T14:35:16;26.33;;;9.57;;
24617;SDS011;12762;51.730;5.356;2024-01-11T14:37:44;25.87;;;10.30;;